< < Back
Terminal Aerodrome Forecast


Current Version              Previous Versions:   1  2  3  4  5  6  7  8  9  

Terminal Aerodrome Forecast

731
FTUS42 KGSP 231100
TAFHKY
TAF
KHKY 231125Z 2312/2412 33007KT P6SM FEW250
     FM240800 35003KT P6SM SKC=

Latest METAR

306
SAUS70 KWBC 231300 RRE
MTRHKY
METAR KHKY 231253Z 29009KT 10SM CLR 15/M01 A2989 RMK AO2 SLP105
T01501011


USA.gov is the U.S. government's official web portal to all federal, state and local government web resources and services.